sensor_id;sensor_type;location;lat;lon;timestamp;P1;durP1;ratioP1;P2;durP2;ratioP2
13404;SDS011;6773;51.192;7.024;2024-01-06T00:01:03;15.50;;;11.13;;
13404;SDS011;6773;51.192;7.024;2024-01-06T00:03:29;16.20;;;11.40;;
13404;SDS011;6773;51.192;7.024;2024-01-06T00:05:55;15.07;;;11.40;;
13404;SDS011;6773;51.192;7.024;2024-01-06T00:08:21;15.87;;;11.00;;
13404;SDS011;6773;51.192;7.024;2024-01-06T00:10:47;16.40;;;11.63;;
13404;SDS011;6773;51.192;7.024;2024-01-06T00:13:13;17.13;;;11.93;;
13404;SDS011;6773;51.192;7.024;2024-01-06T00:15:39;20.20;;;12.83;;
13404;SDS011;6773;51.192;7.024;2024-01-06T00:18:05;18.97;;;12.50;;
13404;SDS011;6773;51.192;7.024;2024-01-06T00:20:31;18.13;;;11.63;;
13404;SDS011;6773;51.192;7.024;2024-01-06T00:22:57;19.07;;;12.93;;
13404;SDS011;6773;51.192;7.024;2024-01-06T00:25:24;20.40;;;12.20;;
13404;SDS011;6773;51.192;7.024;2024-01-06T00:27:50;20.73;;;12.90;;
13404;SDS011;6773;51.192;7.024;2024-01-06T00:30:16;17.77;;;11.73;;
13404;SDS011;6773;51.192;7.024;2024-01-06T00:32:41;20.93;;;13.00;;
13404;SDS011;6773;51.192;7.024;2024-01-06T00:35:07;19.33;;;12.67;;
13404;SDS011;6773;51.192;7.024;2024-01-06T00:37:33;20.57;;;12.97;;
13404;SDS011;6773;51.192;7.024;2024-01-06T00:39:59;21.53;;;13.90;;
13404;SDS011;6773;51.192;7.024;2024-01-06T00:42:25;23.73;;;14.27;;
13404;SDS011;6773;51.192;7.024;2024-01-06T00:44:51;17.50;;;13.10;;
13404;SDS011;6773;51.192;7.024;2024-01-06T00:47:17;20.97;;;13.67;;
13404;SDS011;6773;51.192;7.024;2024-01-06T00:49:43;23.10;;;13.93;;
13404;SDS011;6773;51.192;7.024;2024-01-06T00:52:08;21.63;;;14.37;;
13404;SDS011;6773;51.192;7.024;2024-01-06T00:54:34;23.70;;;14.70;;
13404;SDS011;6773;51.192;7.024;2024-01-06T00:57:00;26.47;;;13.67;;
13404;SDS011;6773;51.192;7.024;2024-01-06T00:59:26;24.20;;;14.10;;
13404;SDS011;6773;51.192;7.024;2024-01-06T01:01:52;26.93;;;15.17;;
13404;SDS011;6773;51.192;7.024;2024-01-06T01:04:18;28.07;;;15.63;;
13404;SDS011;6773;51.192;7.024;2024-01-06T01:06:44;25.90;;;14.93;;
13404;SDS011;6773;51.192;7.024;2024-01-06T01:09:10;25.43;;;15.03;;
13404;SDS011;6773;51.192;7.024;2024-01-06T01:11:38;28.73;;;15.93;;
13404;SDS011;6773;51.192;7.024;2024-01-06T01:14:04;27.50;;;15.60;;
13404;SDS011;6773;51.192;7.024;2024-01-06T01:16:30;30.70;;;16.43;;
13404;SDS011;6773;51.192;7.024;2024-01-06T01:18:57;25.73;;;15.60;;
13404;SDS011;6773;51.192;7.024;2024-01-06T01:21:23;26.97;;;15.40;;
13404;SDS011;6773;51.192;7.024;2024-01-06T01:23:49;25.37;;;14.87;;
13404;SDS011;6773;51.192;7.024;2024-01-06T01:26:15;28.57;;;15.27;;
13404;SDS011;6773;51.192;7.024;2024-01-06T01:28:41;34.73;;;16.40;;
13404;SDS011;6773;51.192;7.024;2024-01-06T01:31:07;29.90;;;16.43;;
13404;SDS011;6773;51.192;7.024;2024-01-06T01:33:33;33.50;;;16.93;;
13404;SDS011;6773;51.192;7.024;2024-01-06T01:35:59;27.07;;;15.53;;
13404;SDS011;6773;51.192;7.024;2024-01-06T01:38:25;31.23;;;15.93;;
13404;SDS011;6773;51.192;7.024;2024-01-06T01:40:51;33.90;;;17.87;;
13404;SDS011;6773;51.192;7.024;2024-01-06T01:43:18;28.93;;;16.07;;
13404;SDS011;6773;51.192;7.024;2024-01-06T01:45:44;28.83;;;14.73;;
13404;SDS011;6773;51.192;7.024;2024-01-06T01:48:11;30.37;;;16.60;;
13404;SDS011;6773;51.192;7.024;2024-01-06T01:50:37;28.57;;;15.90;;
13404;SDS011;6773;51.192;7.024;2024-01-06T01:53:02;31.03;;;16.00;;
13404;SDS011;6773;51.192;7.024;2024-01-06T01:55:28;33.10;;;17.00;;
13404;SDS011;6773;51.192;7.024;2024-01-06T01:57:54;31.87;;;17.53;;
13404;SDS011;6773;51.192;7.024;2024-01-06T02:00:21;34.77;;;17.37;;
13404;SDS011;6773;51.192;7.024;2024-01-06T02:02:47;32.50;;;16.07;;
13404;SDS011;6773;51.192;7.024;2024-01-06T02:05:14;34.57;;;16.63;;
13404;SDS011;6773;51.192;7.024;2024-01-06T02:07:39;34.93;;;17.07;;
13404;SDS011;6773;51.192;7.024;2024-01-06T02:10:06;38.03;;;17.83;;
13404;SDS011;6773;51.192;7.024;2024-01-06T02:12:32;34.30;;;17.93;;
13404;SDS011;6773;51.192;7.024;2024-01-06T02:14:58;39.43;;;18.60;;
13404;SDS011;6773;51.192;7.024;2024-01-06T02:17:24;43.60;;;19.20;;
13404;SDS011;6773;51.192;7.024;2024-01-06T02:19:50;41.43;;;18.30;;
13404;SDS011;6773;51.192;7.024;2024-01-06T02:22:16;77.37;;;20.63;;
13404;SDS011;6773;51.192;7.024;2024-01-06T02:24:42;81.40;;;20.60;;
13404;SDS011;6773;51.192;7.024;2024-01-06T02:27:08;84.80;;;21.60;;
13404;SDS011;6773;51.192;7.024;2024-01-06T02:29:34;151.00;;;23.07;;
13404;SDS011;6773;51.192;7.024;2024-01-06T02:32:00;155.80;;;23.00;;
13404;SDS011;6773;51.192;7.024;2024-01-06T02:34:26;169.47;;;25.97;;
13404;SDS011;6773;51.192;7.024;2024-01-06T02:36:52;163.77;;;26.27;;
13404;SDS011;6773;51.192;7.024;2024-01-06T02:39:18;37.10;;;17.97;;
13404;SDS011;6773;51.192;7.024;2024-01-06T02:41:44;68.70;;;19.93;;
13404;SDS011;6773;51.192;7.024;2024-01-06T02:44:10;71.10;;;21.13;;
13404;SDS011;6773;51.192;7.024;2024-01-06T02:46:36;150.80;;;23.13;;
13404;SDS011;6773;51.192;7.024;2024-01-06T02:49:02;89.73;;;20.33;;
13404;SDS011;6773;51.192;7.024;2024-01-06T02:51:28;46.73;;;17.83;;
13404;SDS011;6773;51.192;7.024;2024-01-06T02:53:54;36.13;;;17.53;;
13404;SDS011;6773;51.192;7.024;2024-01-06T02:56:20;51.83;;;17.00;;
13404;SDS011;6773;51.192;7.024;2024-01-06T02:58:46;39.63;;;15.73;;
13404;SDS011;6773;51.192;7.024;2024-01-06T03:01:12;38.23;;;18.77;;
13404;SDS011;6773;51.192;7.024;2024-01-06T03:03:38;41.50;;;16.87;;
13404;SDS011;6773;51.192;7.024;2024-01-06T03:06:04;75.47;;;21.27;;
13404;SDS011;6773;51.192;7.024;2024-01-06T03:08:30;44.43;;;18.93;;
13404;SDS011;6773;51.192;7.024;2024-01-06T03:10:56;45.77;;;19.87;;
13404;SDS011;6773;51.192;7.024;2024-01-06T03:13:22;43.13;;;19.37;;
13404;SDS011;6773;51.192;7.024;2024-01-06T03:15:48;37.47;;;17.83;;
13404;SDS011;6773;51.192;7.024;2024-01-06T03:18:13;48.23;;;18.77;;
13404;SDS011;6773;51.192;7.024;2024-01-06T03:20:39;47.87;;;21.83;;
13404;SDS011;6773;51.192;7.024;2024-01-06T03:23:05;48.07;;;20.27;;
13404;SDS011;6773;51.192;7.024;2024-01-06T03:25:31;49.00;;;21.07;;
13404;SDS011;6773;51.192;7.024;2024-01-06T03:27:57;46.33;;;20.83;;
13404;SDS011;6773;51.192;7.024;2024-01-06T03:30:23;44.73;;;20.77;;
13404;SDS011;6773;51.192;7.024;2024-01-06T03:32:49;47.80;;;20.63;;
13404;SDS011;6773;51.192;7.024;2024-01-06T03:35:15;40.50;;;17.97;;
13404;SDS011;6773;51.192;7.024;2024-01-06T03:37:41;54.37;;;22.37;;
13404;SDS011;6773;51.192;7.024;2024-01-06T03:40:07;49.63;;;19.57;;
13404;SDS011;6773;51.192;7.024;2024-01-06T03:42:33;48.33;;;20.33;;
13404;SDS011;6773;51.192;7.024;2024-01-06T03:44:59;47.87;;;19.87;;
13404;SDS011;6773;51.192;7.024;2024-01-06T03:47:25;45.97;;;19.70;;
13404;SDS011;6773;51.192;7.024;2024-01-06T03:49:51;52.17;;;19.97;;
13404;SDS011;6773;51.192;7.024;2024-01-06T03:52:17;53.00;;;20.50;;
13404;SDS011;6773;51.192;7.024;2024-01-06T03:54:43;50.27;;;21.47;;
13404;SDS011;6773;51.192;7.024;2024-01-06T03:57:09;52.57;;;21.30;;
13404;SDS011;6773;51.192;7.024;2024-01-06T03:59:35;49.33;;;19.30;;
13404;SDS011;6773;51.192;7.024;2024-01-06T04:02:01;51.93;;;21.13;;
13404;SDS011;6773;51.192;7.024;2024-01-06T04:04:27;50.63;;;20.37;;
13404;SDS011;6773;51.192;7.024;2024-01-06T04:06:53;54.93;;;21.50;;
13404;SDS011;6773;51.192;7.024;2024-01-06T04:09:18;48.17;;;20.90;;
13404;SDS011;6773;51.192;7.024;2024-01-06T04:11:44;54.30;;;21.00;;
13404;SDS011;6773;51.192;7.024;2024-01-06T04:14:10;55.63;;;21.40;;
13404;SDS011;6773;51.192;7.024;2024-01-06T04:16:36;63.77;;;22.67;;
13404;SDS011;6773;51.192;7.024;2024-01-06T04:19:02;62.43;;;22.73;;
13404;SDS011;6773;51.192;7.024;2024-01-06T04:21:28;75.40;;;24.40;;
13404;SDS011;6773;51.192;7.024;2024-01-06T04:23:54;74.83;;;25.20;;
13404;SDS011;6773;51.192;7.024;2024-01-06T04:26:21;74.90;;;25.17;;
13404;SDS011;6773;51.192;7.024;2024-01-06T04:28:46;68.10;;;25.53;;
13404;SDS011;6773;51.192;7.024;2024-01-06T04:31:12;66.17;;;23.97;;
13404;SDS011;6773;51.192;7.024;2024-01-06T04:33:38;63.63;;;24.70;;
13404;SDS011;6773;51.192;7.024;2024-01-06T04:36:05;68.87;;;25.50;;
13404;SDS011;6773;51.192;7.024;2024-01-06T04:38:31;61.80;;;23.17;;
13404;SDS011;6773;51.192;7.024;2024-01-06T04:40:57;55.63;;;23.40;;
13404;SDS011;6773;51.192;7.024;2024-01-06T04:43:22;71.33;;;25.07;;
13404;SDS011;6773;51.192;7.024;2024-01-06T04:45:48;71.73;;;27.10;;
13404;SDS011;6773;51.192;7.024;2024-01-06T04:48:15;72.80;;;28.17;;
13404;SDS011;6773;51.192;7.024;2024-01-06T04:50:41;80.30;;;27.73;;
13404;SDS011;6773;51.192;7.024;2024-01-06T04:53:06;67.43;;;25.90;;
13404;SDS011;6773;51.192;7.024;2024-01-06T04:55:32;69.10;;;26.17;;
13404;SDS011;6773;51.192;7.024;2024-01-06T04:57:58;58.07;;;22.63;;
13404;SDS011;6773;51.192;7.024;2024-01-06T05:00:24;63.03;;;23.10;;
13404;SDS011;6773;51.192;7.024;2024-01-06T05:02:51;57.80;;;23.13;;
13404;SDS011;6773;51.192;7.024;2024-01-06T05:05:16;63.30;;;23.57;;
13404;SDS011;6773;51.192;7.024;2024-01-06T05:07:43;59.30;;;23.40;;
13404;SDS011;6773;51.192;7.024;2024-01-06T05:10:08;54.27;;;22.47;;
13404;SDS011;6773;51.192;7.024;2024-01-06T05:12:34;57.43;;;22.60;;
13404;SDS011;6773;51.192;7.024;2024-01-06T05:15:00;59.23;;;22.13;;
13404;SDS011;6773;51.192;7.024;2024-01-06T05:17:26;53.33;;;21.13;;
13404;SDS011;6773;51.192;7.024;2024-01-06T05:19:53;53.57;;;20.03;;
13404;SDS011;6773;51.192;7.024;2024-01-06T05:22:19;51.53;;;20.83;;
13404;SDS011;6773;51.192;7.024;2024-01-06T05:24:45;46.30;;;20.03;;
13404;SDS011;6773;51.192;7.024;2024-01-06T05:27:11;44.07;;;19.50;;
13404;SDS011;6773;51.192;7.024;2024-01-06T05:29:37;44.23;;;19.03;;
13404;SDS011;6773;51.192;7.024;2024-01-06T05:32:03;43.07;;;17.43;;
13404;SDS011;6773;51.192;7.024;2024-01-06T05:34:29;42.10;;;17.03;;
13404;SDS011;6773;51.192;7.024;2024-01-06T05:36:55;41.10;;;17.10;;
13404;SDS011;6773;51.192;7.024;2024-01-06T05:39:21;43.17;;;16.93;;
13404;SDS011;6773;51.192;7.024;2024-01-06T05:41:47;39.20;;;17.27;;
13404;SDS011;6773;51.192;7.024;2024-01-06T05:44:13;42.07;;;17.70;;
13404;SDS011;6773;51.192;7.024;2024-01-06T05:46:39;40.60;;;16.57;;
13404;SDS011;6773;51.192;7.024;2024-01-06T05:49:05;40.37;;;16.87;;
13404;SDS011;6773;51.192;7.024;2024-01-06T05:51:31;37.87;;;16.23;;
13404;SDS011;6773;51.192;7.024;2024-01-06T05:53:57;38.30;;;17.23;;
13404;SDS011;6773;51.192;7.024;2024-01-06T05:56:23;37.30;;;16.93;;
13404;SDS011;6773;51.192;7.024;2024-01-06T05:58:50;39.43;;;16.40;;
13404;SDS011;6773;51.192;7.024;2024-01-06T06:01:16;37.07;;;15.40;;
13404;SDS011;6773;51.192;7.024;2024-01-06T06:03:42;36.00;;;16.17;;
13404;SDS011;6773;51.192;7.024;2024-01-06T06:06:08;30.07;;;14.67;;
13404;SDS011;6773;51.192;7.024;2024-01-06T06:08:34;37.53;;;16.47;;
13404;SDS011;6773;51.192;7.024;2024-01-06T06:11:00;34.30;;;14.53;;
13404;SDS011;6773;51.192;7.024;2024-01-06T06:13:29;30.27;;;13.53;;
13404;SDS011;6773;51.192;7.024;2024-01-06T06:15:55;34.70;;;14.00;;
13404;SDS011;6773;51.192;7.024;2024-01-06T06:18:21;27.20;;;14.07;;
13404;SDS011;6773;51.192;7.024;2024-01-06T06:20:47;29.23;;;13.67;;
13404;SDS011;6773;51.192;7.024;2024-01-06T06:23:13;30.73;;;13.40;;
13404;SDS011;6773;51.192;7.024;2024-01-06T06:25:39;28.83;;;13.83;;
13404;SDS011;6773;51.192;7.024;2024-01-06T06:28:05;27.70;;;12.10;;
13404;SDS011;6773;51.192;7.024;2024-01-06T06:30:32;28.13;;;13.73;;
13404;SDS011;6773;51.192;7.024;2024-01-06T06:32:58;27.33;;;12.93;;
13404;SDS011;6773;51.192;7.024;2024-01-06T06:35:24;34.17;;;13.37;;
13404;SDS011;6773;51.192;7.024;2024-01-06T06:37:50;28.17;;;12.53;;
13404;SDS011;6773;51.192;7.024;2024-01-06T06:40:16;30.43;;;13.90;;
13404;SDS011;6773;51.192;7.024;2024-01-06T06:42:42;31.33;;;13.13;;
13404;SDS011;6773;51.192;7.024;2024-01-06T06:45:08;30.53;;;12.10;;
13404;SDS011;6773;51.192;7.024;2024-01-06T06:47:36;25.83;;;12.10;;
13404;SDS011;6773;51.192;7.024;2024-01-06T06:50:02;27.20;;;11.93;;
13404;SDS011;6773;51.192;7.024;2024-01-06T06:52:28;29.10;;;11.90;;
13404;SDS011;6773;51.192;7.024;2024-01-06T06:54:54;27.87;;;12.63;;
13404;SDS011;6773;51.192;7.024;2024-01-06T06:57:20;26.93;;;12.07;;
13404;SDS011;6773;51.192;7.024;2024-01-06T06:59:46;31.23;;;12.00;;
13404;SDS011;6773;51.192;7.024;2024-01-06T07:02:12;25.47;;;12.03;;
13404;SDS011;6773;51.192;7.024;2024-01-06T07:04:38;30.43;;;11.90;;
13404;SDS011;6773;51.192;7.024;2024-01-06T07:07:04;26.30;;;11.53;;
13404;SDS011;6773;51.192;7.024;2024-01-06T07:09:30;25.47;;;11.13;;
13404;SDS011;6773;51.192;7.024;2024-01-06T07:11:56;27.17;;;11.73;;
13404;SDS011;6773;51.192;7.024;2024-01-06T07:14:22;26.60;;;12.33;;
13404;SDS011;6773;51.192;7.024;2024-01-06T07:16:48;30.20;;;12.97;;
13404;SDS011;6773;51.192;7.024;2024-01-06T07:19:14;26.80;;;12.40;;
13404;SDS011;6773;51.192;7.024;2024-01-06T07:21:40;23.77;;;10.93;;
13404;SDS011;6773;51.192;7.024;2024-01-06T07:24:06;28.53;;;12.53;;
13404;SDS011;6773;51.192;7.024;2024-01-06T07:26:32;27.43;;;11.47;;
13404;SDS011;6773;51.192;7.024;2024-01-06T07:28:58;30.70;;;12.80;;
13404;SDS011;6773;51.192;7.024;2024-01-06T07:31:24;23.57;;;11.40;;
13404;SDS011;6773;51.192;7.024;2024-01-06T07:33:50;25.53;;;11.93;;
13404;SDS011;6773;51.192;7.024;2024-01-06T07:36:15;28.53;;;13.87;;
13404;SDS011;6773;51.192;7.024;2024-01-06T07:38:42;26.13;;;11.17;;
13404;SDS011;6773;51.192;7.024;2024-01-06T07:41:10;24.80;;;11.23;;
13404;SDS011;6773;51.192;7.024;2024-01-06T07:43:37;26.70;;;12.33;;
13404;SDS011;6773;51.192;7.024;2024-01-06T07:46:03;29.43;;;12.70;;
13404;SDS011;6773;51.192;7.024;2024-01-06T07:48:29;29.57;;;12.17;;
13404;SDS011;6773;51.192;7.024;2024-01-06T07:50:55;28.07;;;12.97;;
13404;SDS011;6773;51.192;7.024;2024-01-06T07:53:21;25.20;;;11.87;;
13404;SDS011;6773;51.192;7.024;2024-01-06T07:55:47;25.43;;;12.57;;
13404;SDS011;6773;51.192;7.024;2024-01-06T07:58:13;24.10;;;11.10;;
13404;SDS011;6773;51.192;7.024;2024-01-06T08:00:39;26.63;;;12.53;;
13404;SDS011;6773;51.192;7.024;2024-01-06T08:03:06;25.80;;;11.00;;
13404;SDS011;6773;51.192;7.024;2024-01-06T08:05:31;21.33;;;10.67;;
13404;SDS011;6773;51.192;7.024;2024-01-06T08:07:58;24.87;;;11.50;;
13404;SDS011;6773;51.192;7.024;2024-01-06T08:10:24;28.03;;;11.13;;
13404;SDS011;6773;51.192;7.024;2024-01-06T08:12:50;21.13;;;10.70;;
13404;SDS011;6773;51.192;7.024;2024-01-06T08:15:16;25.00;;;11.17;;
13404;SDS011;6773;51.192;7.024;2024-01-06T08:17:42;26.07;;;12.10;;
13404;SDS011;6773;51.192;7.024;2024-01-06T08:20:08;24.10;;;11.17;;
13404;SDS011;6773;51.192;7.024;2024-01-06T08:22:34;24.73;;;12.50;;
13404;SDS011;6773;51.192;7.024;2024-01-06T08:25:00;22.40;;;11.00;;
13404;SDS011;6773;51.192;7.024;2024-01-06T08:27:26;23.93;;;11.37;;
13404;SDS011;6773;51.192;7.024;2024-01-06T08:29:52;25.07;;;11.13;;
13404;SDS011;6773;51.192;7.024;2024-01-06T08:32:18;24.03;;;10.37;;
13404;SDS011;6773;51.192;7.024;2024-01-06T08:34:44;24.50;;;11.60;;
13404;SDS011;6773;51.192;7.024;2024-01-06T08:37:10;22.90;;;11.60;;
13404;SDS011;6773;51.192;7.024;2024-01-06T08:39:36;22.63;;;11.00;;
13404;SDS011;6773;51.192;7.024;2024-01-06T08:42:02;23.70;;;11.43;;
13404;SDS011;6773;51.192;7.024;2024-01-06T08:44:28;23.23;;;11.53;;
13404;SDS011;6773;51.192;7.024;2024-01-06T08:46:53;26.10;;;12.50;;
13404;SDS011;6773;51.192;7.024;2024-01-06T08:49:19;34.70;;;14.97;;
13404;SDS011;6773;51.192;7.024;2024-01-06T08:51:45;31.17;;;14.20;;
13404;SDS011;6773;51.192;7.024;2024-01-06T08:54:11;29.13;;;12.90;;
13404;SDS011;6773;51.192;7.024;2024-01-06T08:56:37;28.20;;;13.03;;
13404;SDS011;6773;51.192;7.024;2024-01-06T08:59:03;29.07;;;12.63;;
13404;SDS011;6773;51.192;7.024;2024-01-06T09:01:29;29.13;;;13.80;;
13404;SDS011;6773;51.192;7.024;2024-01-06T09:03:56;27.67;;;12.40;;
13404;SDS011;6773;51.192;7.024;2024-01-06T09:06:22;26.77;;;12.40;;
13404;SDS011;6773;51.192;7.024;2024-01-06T09:08:49;23.07;;;10.93;;
13404;SDS011;6773;51.192;7.024;2024-01-06T09:11:15;24.80;;;11.97;;
13404;SDS011;6773;51.192;7.024;2024-01-06T09:13:41;21.80;;;10.23;;
13404;SDS011;6773;51.192;7.024;2024-01-06T09:16:07;20.83;;;10.00;;
13404;SDS011;6773;51.192;7.024;2024-01-06T09:18:33;23.47;;;10.33;;
13404;SDS011;6773;51.192;7.024;2024-01-06T09:20:59;23.77;;;10.00;;
13404;SDS011;6773;51.192;7.024;2024-01-06T09:23:25;24.23;;;9.73;;
13404;SDS011;6773;51.192;7.024;2024-01-06T09:25:51;23.37;;;9.97;;
13404;SDS011;6773;51.192;7.024;2024-01-06T09:28:18;25.43;;;9.53;;
13404;SDS011;6773;51.192;7.024;2024-01-06T09:30:43;20.20;;;9.37;;
13404;SDS011;6773;51.192;7.024;2024-01-06T09:33:09;23.03;;;10.63;;
13404;SDS011;6773;51.192;7.024;2024-01-06T09:35:35;26.90;;;10.67;;
13404;SDS011;6773;51.192;7.024;2024-01-06T09:38:01;22.30;;;9.63;;
13404;SDS011;6773;51.192;7.024;2024-01-06T09:40:27;22.60;;;10.40;;
13404;SDS011;6773;51.192;7.024;2024-01-06T09:42:56;21.63;;;10.03;;
13404;SDS011;6773;51.192;7.024;2024-01-06T09:45:22;23.60;;;10.20;;
13404;SDS011;6773;51.192;7.024;2024-01-06T09:47:49;24.30;;;10.07;;
13404;SDS011;6773;51.192;7.024;2024-01-06T09:50:17;24.00;;;9.90;;
13404;SDS011;6773;51.192;7.024;2024-01-06T09:52:44;23.00;;;10.27;;
13404;SDS011;6773;51.192;7.024;2024-01-06T09:55:17;22.07;;;10.00;;
13404;SDS011;6773;51.192;7.024;2024-01-06T09:57:44;20.90;;;10.23;;
13404;SDS011;6773;51.192;7.024;2024-01-06T10:00:10;24.23;;;11.40;;
13404;SDS011;6773;51.192;7.024;2024-01-06T10:02:36;22.67;;;10.77;;
13404;SDS011;6773;51.192;7.024;2024-01-06T10:05:02;27.80;;;11.80;;
13404;SDS011;6773;51.192;7.024;2024-01-06T10:07:28;28.97;;;13.40;;
13404;SDS011;6773;51.192;7.024;2024-01-06T10:09:54;29.57;;;13.77;;
13404;SDS011;6773;51.192;7.024;2024-01-06T10:12:24;27.87;;;12.40;;
13404;SDS011;6773;51.192;7.024;2024-01-06T10:14:50;34.43;;;13.60;;
13404;SDS011;6773;51.192;7.024;2024-01-06T10:17:16;32.80;;;13.93;;
13404;SDS011;6773;51.192;7.024;2024-01-06T10:19:44;35.03;;;13.97;;
13404;SDS011;6773;51.192;7.024;2024-01-06T10:22:10;34.70;;;14.83;;
13404;SDS011;6773;51.192;7.024;2024-01-06T10:24:39;36.27;;;15.70;;
13404;SDS011;6773;51.192;7.024;2024-01-06T10:27:05;36.93;;;14.63;;
13404;SDS011;6773;51.192;7.024;2024-01-06T10:29:33;39.40;;;16.00;;
13404;SDS011;6773;51.192;7.024;2024-01-06T10:31:59;43.60;;;17.37;;
13404;SDS011;6773;51.192;7.024;2024-01-06T10:34:26;47.43;;;19.27;;
13404;SDS011;6773;51.192;7.024;2024-01-06T10:36:52;49.37;;;19.03;;
13404;SDS011;6773;51.192;7.024;2024-01-06T10:39:18;53.00;;;19.47;;
13404;SDS011;6773;51.192;7.024;2024-01-06T10:41:45;57.40;;;19.53;;
13404;SDS011;6773;51.192;7.024;2024-01-06T10:44:13;51.07;;;19.10;;
13404;SDS011;6773;51.192;7.024;2024-01-06T10:46:40;49.07;;;18.80;;
13404;SDS011;6773;51.192;7.024;2024-01-06T10:49:06;48.87;;;18.07;;
13404;SDS011;6773;51.192;7.024;2024-01-06T10:51:37;46.40;;;18.10;;
13404;SDS011;6773;51.192;7.024;2024-01-06T10:54:04;38.90;;;16.20;;
13404;SDS011;6773;51.192;7.024;2024-01-06T10:56:30;42.07;;;16.40;;
13404;SDS011;6773;51.192;7.024;2024-01-06T10:59:01;45.23;;;16.23;;
13404;SDS011;6773;51.192;7.024;2024-01-06T11:01:28;41.57;;;16.10;;
13404;SDS011;6773;51.192;7.024;2024-01-06T11:03:55;35.87;;;15.63;;
13404;SDS011;6773;51.192;7.024;2024-01-06T11:06:20;35.50;;;14.43;;
13404;SDS011;6773;51.192;7.024;2024-01-06T11:08:53;32.27;;;14.70;;
13404;SDS011;6773;51.192;7.024;2024-01-06T11:11:27;31.43;;;12.73;;
13404;SDS011;6773;51.192;7.024;2024-01-06T11:13:53;28.67;;;12.03;;
13404;SDS011;6773;51.192;7.024;2024-01-06T11:16:39;30.97;;;11.60;;
13404;SDS011;6773;51.192;7.024;2024-01-06T11:22:20;34.27;;;14.20;;
13404;SDS011;6773;51.192;7.024;2024-01-06T11:24:47;33.87;;;15.47;;
13404;SDS011;6773;51.192;7.024;2024-01-06T11:27:24;36.83;;;14.63;;
13404;SDS011;6773;51.192;7.024;2024-01-06T11:29:54;35.27;;;15.77;;
13404;SDS011;6773;51.192;7.024;2024-01-06T11:32:24;39.77;;;16.30;;
13404;SDS011;6773;51.192;7.024;2024-01-06T11:34:51;43.87;;;17.53;;
13404;SDS011;6773;51.192;7.024;2024-01-06T11:43:08;59.47;;;18.77;;
13404;SDS011;6773;51.192;7.024;2024-01-06T11:45:32;56.73;;;20.10;;
13404;SDS011;6773;51.192;7.024;2024-01-06T11:48:03;63.40;;;22.40;;
13404;SDS011;6773;51.192;7.024;2024-01-06T11:50:34;68.10;;;20.90;;
13404;SDS011;6773;51.192;7.024;2024-01-06T11:53:01;66.40;;;23.53;;
13404;SDS011;6773;51.192;7.024;2024-01-06T11:55:27;51.50;;;19.87;;
13404;SDS011;6773;51.192;7.024;2024-01-06T11:57:56;46.07;;;18.60;;
13404;SDS011;6773;51.192;7.024;2024-01-06T12:00:23;45.60;;;17.63;;
13404;SDS011;6773;51.192;7.024;2024-01-06T12:02:48;38.63;;;16.87;;
13404;SDS011;6773;51.192;7.024;2024-01-06T12:05:16;43.17;;;16.77;;
13404;SDS011;6773;51.192;7.024;2024-01-06T12:07:43;37.90;;;15.10;;
13404;SDS011;6773;51.192;7.024;2024-01-06T12:10:19;36.73;;;15.93;;
13404;SDS011;6773;51.192;7.024;2024-01-06T12:12:54;37.63;;;15.13;;
13404;SDS011;6773;51.192;7.024;2024-01-06T12:15:20;38.47;;;16.47;;
13404;SDS011;6773;51.192;7.024;2024-01-06T12:17:46;36.27;;;16.13;;
13404;SDS011;6773;51.192;7.024;2024-01-06T12:20:13;41.40;;;16.27;;
13404;SDS011;6773;51.192;7.024;2024-01-06T12:22:39;38.47;;;15.90;;
13404;SDS011;6773;51.192;7.024;2024-01-06T12:25:05;33.37;;;14.67;;
13404;SDS011;6773;51.192;7.024;2024-01-06T12:27:32;31.23;;;14.67;;
13404;SDS011;6773;51.192;7.024;2024-01-06T12:29:58;33.17;;;13.20;;
13404;SDS011;6773;51.192;7.024;2024-01-06T12:32:25;39.77;;;15.10;;
13404;SDS011;6773;51.192;7.024;2024-01-06T12:34:51;31.87;;;14.27;;
13404;SDS011;6773;51.192;7.024;2024-01-06T12:37:17;31.37;;;14.63;;
13404;SDS011;6773;51.192;7.024;2024-01-06T12:39:42;35.00;;;13.40;;
13404;SDS011;6773;51.192;7.024;2024-01-06T12:42:10;30.00;;;12.40;;
13404;SDS011;6773;51.192;7.024;2024-01-06T12:44:36;34.80;;;14.80;;
13404;SDS011;6773;51.192;7.024;2024-01-06T12:47:04;38.97;;;15.67;;
13404;SDS011;6773;51.192;7.024;2024-01-06T12:49:30;39.90;;;15.23;;
13404;SDS011;6773;51.192;7.024;2024-01-06T12:51:56;51.60;;;16.77;;
13404;SDS011;6773;51.192;7.024;2024-01-06T12:54:22;43.83;;;16.80;;
13404;SDS011;6773;51.192;7.024;2024-01-06T12:56:48;48.60;;;17.97;;
13404;SDS011;6773;51.192;7.024;2024-01-06T12:59:14;46.33;;;17.77;;
13404;SDS011;6773;51.192;7.024;2024-01-06T13:01:41;45.87;;;18.47;;
13404;SDS011;6773;51.192;7.024;2024-01-06T13:04:07;47.70;;;18.47;;
13404;SDS011;6773;51.192;7.024;2024-01-06T13:06:34;54.47;;;19.83;;
13404;SDS011;6773;51.192;7.024;2024-01-06T13:08:59;53.47;;;17.83;;
13404;SDS011;6773;51.192;7.024;2024-01-06T13:11:30;53.53;;;19.23;;
13404;SDS011;6773;51.192;7.024;2024-01-06T13:13:56;58.50;;;20.30;;
13404;SDS011;6773;51.192;7.024;2024-01-06T13:16:22;54.60;;;20.40;;
13404;SDS011;6773;51.192;7.024;2024-01-06T13:18:48;59.33;;;21.10;;
13404;SDS011;6773;51.192;7.024;2024-01-06T13:21:14;68.67;;;22.13;;
13404;SDS011;6773;51.192;7.024;2024-01-06T13:23:40;58.50;;;20.63;;
13404;SDS011;6773;51.192;7.024;2024-01-06T13:26:06;58.60;;;22.00;;
13404;SDS011;6773;51.192;7.024;2024-01-06T13:28:33;69.53;;;22.30;;
13404;SDS011;6773;51.192;7.024;2024-01-06T13:30:59;54.97;;;20.57;;
13404;SDS011;6773;51.192;7.024;2024-01-06T13:33:25;69.40;;;21.63;;
13404;SDS011;6773;51.192;7.024;2024-01-06T13:35:51;64.90;;;22.90;;
13404;SDS011;6773;51.192;7.024;2024-01-06T13:38:17;74.83;;;21.53;;
13404;SDS011;6773;51.192;7.024;2024-01-06T13:40:43;63.30;;;21.03;;
13404;SDS011;6773;51.192;7.024;2024-01-06T13:43:09;66.53;;;20.10;;
13404;SDS011;6773;51.192;7.024;2024-01-06T13:45:40;67.77;;;21.67;;
13404;SDS011;6773;51.192;7.024;2024-01-06T13:48:06;58.53;;;20.93;;
13404;SDS011;6773;51.192;7.024;2024-01-06T13:50:32;57.20;;;21.30;;
13404;SDS011;6773;51.192;7.024;2024-01-06T13:52:58;57.10;;;19.93;;
13404;SDS011;6773;51.192;7.024;2024-01-06T13:55:25;51.47;;;20.40;;
13404;SDS011;6773;51.192;7.024;2024-01-06T13:57:50;51.07;;;18.50;;
13404;SDS011;6773;51.192;7.024;2024-01-06T14:00:16;46.10;;;18.13;;
13404;SDS011;6773;51.192;7.024;2024-01-06T14:02:44;48.33;;;17.43;;
13404;SDS011;6773;51.192;7.024;2024-01-06T14:05:12;45.77;;;16.20;;
13404;SDS011;6773;51.192;7.024;2024-01-06T14:07:38;33.83;;;13.70;;
13404;SDS011;6773;51.192;7.024;2024-01-06T14:10:10;42.47;;;15.33;;
13404;SDS011;6773;51.192;7.024;2024-01-06T14:12:35;37.30;;;14.63;;
13404;SDS011;6773;51.192;7.024;2024-01-06T14:15:01;43.50;;;16.87;;
13404;SDS011;6773;51.192;7.024;2024-01-06T14:17:28;48.23;;;17.07;;
13404;SDS011;6773;51.192;7.024;2024-01-06T14:19:54;40.63;;;16.33;;
13404;SDS011;6773;51.192;7.024;2024-01-06T14:22:20;36.53;;;14.17;;
13404;SDS011;6773;51.192;7.024;2024-01-06T14:24:46;28.00;;;12.57;;
13404;SDS011;6773;51.192;7.024;2024-01-06T14:27:12;29.20;;;10.97;;
13404;SDS011;6773;51.192;7.024;2024-01-06T14:29:39;23.30;;;10.87;;
13404;SDS011;6773;51.192;7.024;2024-01-06T14:32:05;24.57;;;10.77;;
13404;SDS011;6773;51.192;7.024;2024-01-06T14:34:31;31.83;;;11.10;;
13404;SDS011;6773;51.192;7.024;2024-01-06T14:36:56;26.07;;;10.67;;